sensor_id;sensor_type;location;lat;lon;timestamp;P1;durP1;ratioP1;P2;durP2;ratioP2
28353;SDS011;15603;50.878;8.036;2023-05-10T00:02:03;0.20;;;0.20;;
28353;SDS011;15603;50.878;8.036;2023-05-10T00:04:30;0.22;;;0.20;;
28353;SDS011;15603;50.878;8.036;2023-05-10T00:06:57;0.52;;;0.30;;
28353;SDS011;15603;50.878;8.036;2023-05-10T00:09:24;4.68;;;0.20;;
28353;SDS011;15603;50.878;8.036;2023-05-10T00:11:51;2.35;;;0.20;;
28353;SDS011;15603;50.878;8.036;2023-05-10T00:14:18;1.73;;;0.30;;
28353;SDS011;15603;50.878;8.036;2023-05-10T00:16:45;1.75;;;0.30;;
28353;SDS011;15603;50.878;8.036;2023-05-10T00:19:13;0.30;;;0.30;;
28353;SDS011;15603;50.878;8.036;2023-05-10T00:21:40;1.70;;;0.32;;
28353;SDS011;15603;50.878;8.036;2023-05-10T00:24:07;1.48;;;0.35;;
28353;SDS011;15603;50.878;8.036;2023-05-10T00:26:34;0.25;;;0.25;;
28353;SDS011;15603;50.878;8.036;2023-05-10T00:29:01;0.93;;;0.20;;
28353;SDS011;15603;50.878;8.036;2023-05-10T00:31:28;3.67;;;0.40;;
28353;SDS011;15603;50.878;8.036;2023-05-10T00:33:56;0.65;;;0.30;;
28353;SDS011;15603;50.878;8.036;2023-05-10T00:36:24;0.82;;;0.30;;
28353;SDS011;15603;50.878;8.036;2023-05-10T00:38:51;1.17;;;0.20;;
28353;SDS011;15603;50.878;8.036;2023-05-10T00:41:18;3.28;;;0.40;;
28353;SDS011;15603;50.878;8.036;2023-05-10T00:43:46;0.60;;;0.60;;
28353;SDS011;15603;50.878;8.036;2023-05-10T00:46:14;3.13;;;0.38;;
28353;SDS011;15603;50.878;8.036;2023-05-10T00:48:42;0.30;;;0.30;;
28353;SDS011;15603;50.878;8.036;2023-05-10T00:51:10;0.28;;;0.28;;
28353;SDS011;15603;50.878;8.036;2023-05-10T00:53:37;0.52;;;0.35;;
28353;SDS011;15603;50.878;8.036;2023-05-10T00:56:04;4.35;;;0.60;;
28353;SDS011;15603;50.878;8.036;2023-05-10T00:58:32;0.45;;;0.38;;
28353;SDS011;15603;50.878;8.036;2023-05-10T01:00:59;0.30;;;0.30;;
28353;SDS011;15603;50.878;8.036;2023-05-10T01:03:28;4.72;;;0.47;;
28353;SDS011;15603;50.878;8.036;2023-05-10T01:05:55;1.05;;;0.85;;
28353;SDS011;15603;50.878;8.036;2023-05-10T01:08:24;0.60;;;0.50;;
28353;SDS011;15603;50.878;8.036;2023-05-10T01:10:52;4.38;;;0.35;;
28353;SDS011;15603;50.878;8.036;2023-05-10T01:13:40;1.00;;;0.45;;
28353;SDS011;15603;50.878;8.036;2023-05-10T01:16:09;0.90;;;0.50;;
28353;SDS011;15603;50.878;8.036;2023-05-10T01:18:36;0.70;;;0.47;;
28353;SDS011;15603;50.878;8.036;2023-05-10T01:24:04;0.30;;;0.30;;
28353;SDS011;15603;50.878;8.036;2023-05-10T01:35:16;0.30;;;0.30;;
28353;SDS011;15603;50.878;8.036;2023-05-10T01:43:30;4.72;;;0.57;;
28353;SDS011;15603;50.878;8.036;2023-05-10T01:46:05;0.20;;;0.20;;
28353;SDS011;15603;50.878;8.036;2023-05-10T01:48:38;1.20;;;0.50;;
28353;SDS011;15603;50.878;8.036;2023-05-10T01:51:16;0.52;;;0.40;;
28353;SDS011;15603;50.878;8.036;2023-05-10T01:53:48;0.95;;;0.45;;
28353;SDS011;15603;50.878;8.036;2023-05-10T01:56:16;0.47;;;0.47;;
28353;SDS011;15603;50.878;8.036;2023-05-10T01:58:49;1.17;;;0.40;;
28353;SDS011;15603;50.878;8.036;2023-05-10T02:01:19;0.40;;;0.40;;
28353;SDS011;15603;50.878;8.036;2023-05-10T02:03:49;0.95;;;0.30;;
28353;SDS011;15603;50.878;8.036;2023-05-10T02:06:18;5.72;;;0.50;;
28353;SDS011;15603;50.878;8.036;2023-05-10T02:08:49;3.58;;;0.57;;
28353;SDS011;15603;50.878;8.036;2023-05-10T02:11:18;0.43;;;0.43;;
28353;SDS011;15603;50.878;8.036;2023-05-10T02:13:49;0.55;;;0.50;;
28353;SDS011;15603;50.878;8.036;2023-05-10T02:16:17;0.57;;;0.40;;
28353;SDS011;15603;50.878;8.036;2023-05-10T02:18:48;0.60;;;0.50;;
28353;SDS011;15603;50.878;8.036;2023-05-10T02:21:17;3.20;;;1.73;;
28353;SDS011;15603;50.878;8.036;2023-05-10T02:23:47;1.77;;;0.63;;
28353;SDS011;15603;50.878;8.036;2023-05-10T02:26:16;0.50;;;0.50;;
28353;SDS011;15603;50.878;8.036;2023-05-10T02:28:45;1.58;;;0.88;;
28353;SDS011;15603;50.878;8.036;2023-05-10T02:31:13;3.70;;;0.82;;
28353;SDS011;15603;50.878;8.036;2023-05-10T02:33:41;1.77;;;0.80;;
28353;SDS011;15603;50.878;8.036;2023-05-10T02:36:10;5.07;;;0.90;;
28353;SDS011;15603;50.878;8.036;2023-05-10T02:38:39;1.38;;;0.98;;
28353;SDS011;15603;50.878;8.036;2023-05-10T02:41:07;7.93;;;1.13;;
28353;SDS011;15603;50.878;8.036;2023-05-10T02:43:36;1.75;;;1.08;;
28353;SDS011;15603;50.878;8.036;2023-05-10T02:46:06;1.15;;;0.98;;
28353;SDS011;15603;50.878;8.036;2023-05-10T02:48:35;3.28;;;1.05;;
28353;SDS011;15603;50.878;8.036;2023-05-10T02:51:04;1.20;;;1.10;;
28353;SDS011;15603;50.878;8.036;2023-05-10T02:53:34;1.20;;;1.10;;
28353;SDS011;15603;50.878;8.036;2023-05-10T02:56:10;1.20;;;1.10;;
28353;SDS011;15603;50.878;8.036;2023-05-10T02:58:40;2.72;;;1.45;;
28353;SDS011;15603;50.878;8.036;2023-05-10T03:01:07;2.30;;;1.35;;
28353;SDS011;15603;50.878;8.036;2023-05-10T03:03:35;2.20;;;1.50;;
28353;SDS011;15603;50.878;8.036;2023-05-10T03:06:02;2.90;;;1.67;;
28353;SDS011;15603;50.878;8.036;2023-05-10T03:08:30;2.05;;;1.88;;
28353;SDS011;15603;50.878;8.036;2023-05-10T03:14:08;6.00;;;2.00;;
28353;SDS011;15603;50.878;8.036;2023-05-10T03:16:52;2.47;;;1.58;;
28353;SDS011;15603;50.878;8.036;2023-05-10T03:19:27;2.50;;;2.00;;
28353;SDS011;15603;50.878;8.036;2023-05-10T03:21:59;2.47;;;2.27;;
28353;SDS011;15603;50.878;8.036;2023-05-10T03:24:33;3.75;;;2.38;;
28353;SDS011;15603;50.878;8.036;2023-05-10T03:27:02;5.60;;;2.83;;
28353;SDS011;15603;50.878;8.036;2023-05-10T03:29:31;3.38;;;2.65;;
28353;SDS011;15603;50.878;8.036;2023-05-10T03:31:58;3.42;;;2.88;;
28353;SDS011;15603;50.878;8.036;2023-05-10T03:34:29;5.53;;;3.60;;
28353;SDS011;15603;50.878;8.036;2023-05-10T03:36:58;8.25;;;3.63;;
28353;SDS011;15603;50.878;8.036;2023-05-10T03:39:27;6.95;;;4.35;;
28353;SDS011;15603;50.878;8.036;2023-05-10T03:41:57;4.20;;;3.45;;
28353;SDS011;15603;50.878;8.036;2023-05-10T03:44:25;11.43;;;4.45;;
28353;SDS011;15603;50.878;8.036;2023-05-10T03:46:52;5.90;;;4.45;;
28353;SDS011;15603;50.878;8.036;2023-05-10T03:49:19;6.53;;;4.90;;
28353;SDS011;15603;50.878;8.036;2023-05-10T03:51:46;7.93;;;4.88;;
28353;SDS011;15603;50.878;8.036;2023-05-10T03:54:13;7.18;;;5.70;;
28353;SDS011;15603;50.878;8.036;2023-05-10T03:56:40;6.35;;;5.10;;
28353;SDS011;15603;50.878;8.036;2023-05-10T03:59:07;6.57;;;5.30;;
28353;SDS011;15603;50.878;8.036;2023-05-10T04:01:35;6.95;;;5.80;;
28353;SDS011;15603;50.878;8.036;2023-05-10T04:04:02;8.55;;;5.28;;
28353;SDS011;15603;50.878;8.036;2023-05-10T04:06:31;14.32;;;6.18;;
28353;SDS011;15603;50.878;8.036;2023-05-10T04:08:58;9.27;;;6.55;;
28353;SDS011;15603;50.878;8.036;2023-05-10T04:11:27;10.13;;;6.82;;
28353;SDS011;15603;50.878;8.036;2023-05-10T04:13:54;7.68;;;6.35;;
28353;SDS011;15603;50.878;8.036;2023-05-10T04:16:21;13.57;;;6.60;;
28353;SDS011;15603;50.878;8.036;2023-05-10T04:18:48;11.00;;;6.22;;
28353;SDS011;15603;50.878;8.036;2023-05-10T04:21:15;8.52;;;5.68;;
28353;SDS011;15603;50.878;8.036;2023-05-10T04:23:43;7.85;;;6.00;;
28353;SDS011;15603;50.878;8.036;2023-05-10T04:26:10;10.27;;;5.88;;
28353;SDS011;15603;50.878;8.036;2023-05-10T04:28:37;8.15;;;5.13;;
28353;SDS011;15603;50.878;8.036;2023-05-10T04:31:05;6.22;;;4.53;;
28353;SDS011;15603;50.878;8.036;2023-05-10T04:33:33;4.93;;;3.78;;
28353;SDS011;15603;50.878;8.036;2023-05-10T04:36:01;5.78;;;4.18;;
28353;SDS011;15603;50.878;8.036;2023-05-10T04:38:28;3.20;;;2.90;;
28353;SDS011;15603;50.878;8.036;2023-05-10T04:41:05;4.18;;;2.72;;
28353;SDS011;15603;50.878;8.036;2023-05-10T04:43:35;2.42;;;1.98;;
28353;SDS011;15603;50.878;8.036;2023-05-10T04:46:03;2.55;;;2.17;;
28353;SDS011;15603;50.878;8.036;2023-05-10T04:48:31;4.55;;;2.40;;
28353;SDS011;15603;50.878;8.036;2023-05-10T04:50:58;4.65;;;2.58;;
28353;SDS011;15603;50.878;8.036;2023-05-10T04:53:25;2.80;;;2.15;;
28353;SDS011;15603;50.878;8.036;2023-05-10T04:55:52;2.67;;;2.15;;
28353;SDS011;15603;50.878;8.036;2023-05-10T04:58:19;2.72;;;2.30;;
28353;SDS011;15603;50.878;8.036;2023-05-10T05:00:46;3.00;;;2.03;;
28353;SDS011;15603;50.878;8.036;2023-05-10T05:03:13;3.85;;;1.95;;
28353;SDS011;15603;50.878;8.036;2023-05-10T05:05:40;2.90;;;2.00;;
28353;SDS011;15603;50.878;8.036;2023-05-10T05:08:07;2.60;;;1.50;;
28353;SDS011;15603;50.878;8.036;2023-05-10T05:10:34;1.70;;;1.60;;
28353;SDS011;15603;50.878;8.036;2023-05-10T05:13:01;3.42;;;1.92;;
28353;SDS011;15603;50.878;8.036;2023-05-10T05:15:28;4.68;;;2.13;;
28353;SDS011;15603;50.878;8.036;2023-05-10T05:17:57;1.48;;;1.00;;
28353;SDS011;15603;50.878;8.036;2023-05-10T05:20:24;1.80;;;1.45;;
28353;SDS011;15603;50.878;8.036;2023-05-10T05:22:51;2.72;;;1.40;;
28353;SDS011;15603;50.878;8.036;2023-05-10T05:25:18;2.42;;;1.40;;
28353;SDS011;15603;50.878;8.036;2023-05-10T05:27:45;5.47;;;1.42;;
28353;SDS011;15603;50.878;8.036;2023-05-10T05:30:12;2.13;;;1.23;;
28353;SDS011;15603;50.878;8.036;2023-05-10T05:32:39;2.05;;;1.35;;
28353;SDS011;15603;50.878;8.036;2023-05-10T05:35:06;3.33;;;1.90;;
28353;SDS011;15603;50.878;8.036;2023-05-10T05:37:34;2.42;;;1.65;;
28353;SDS011;15603;50.878;8.036;2023-05-10T05:40:01;3.72;;;1.60;;
28353;SDS011;15603;50.878;8.036;2023-05-10T05:42:29;3.80;;;1.48;;
28353;SDS011;15603;50.878;8.036;2023-05-10T05:44:58;6.32;;;1.83;;
28353;SDS011;15603;50.878;8.036;2023-05-10T05:47:25;2.08;;;1.40;;
28353;SDS011;15603;50.878;8.036;2023-05-10T05:49:52;3.33;;;1.83;;
28353;SDS011;15603;50.878;8.036;2023-05-10T05:52:19;3.28;;;1.58;;
28353;SDS011;15603;50.878;8.036;2023-05-10T05:54:46;7.22;;;1.85;;
28353;SDS011;15603;50.878;8.036;2023-05-10T05:57:13;7.50;;;1.90;;
28353;SDS011;15603;50.878;8.036;2023-05-10T05:59:40;4.40;;;2.13;;
28353;SDS011;15603;50.878;8.036;2023-05-10T06:02:10;2.75;;;1.60;;
28353;SDS011;15603;50.878;8.036;2023-05-10T06:04:37;4.90;;;2.10;;
28353;SDS011;15603;50.878;8.036;2023-05-10T06:07:07;2.65;;;1.77;;
28353;SDS011;15603;50.878;8.036;2023-05-10T06:09:34;3.75;;;2.15;;
28353;SDS011;15603;50.878;8.036;2023-05-10T06:12:01;6.10;;;2.60;;
28353;SDS011;15603;50.878;8.036;2023-05-10T06:14:28;6.43;;;2.50;;
28353;SDS011;15603;50.878;8.036;2023-05-10T06:16:55;9.02;;;3.33;;
28353;SDS011;15603;50.878;8.036;2023-05-10T06:19:22;5.65;;;2.63;;
28353;SDS011;15603;50.878;8.036;2023-05-10T06:21:49;5.07;;;2.17;;
28353;SDS011;15603;50.878;8.036;2023-05-10T06:24:19;4.60;;;2.28;;
28353;SDS011;15603;50.878;8.036;2023-05-10T06:26:46;4.47;;;3.28;;
28353;SDS011;15603;50.878;8.036;2023-05-10T06:29:13;4.18;;;2.35;;
28353;SDS011;15603;50.878;8.036;2023-05-10T06:31:41;6.10;;;3.25;;
28353;SDS011;15603;50.878;8.036;2023-05-10T06:34:09;5.20;;;2.90;;
28353;SDS011;15603;50.878;8.036;2023-05-10T06:36:36;9.45;;;2.65;;
28353;SDS011;15603;50.878;8.036;2023-05-10T06:39:03;4.88;;;2.90;;
28353;SDS011;15603;50.878;8.036;2023-05-10T06:41:30;3.85;;;2.33;;
28353;SDS011;15603;50.878;8.036;2023-05-10T06:43:57;5.30;;;3.15;;
28353;SDS011;15603;50.878;8.036;2023-05-10T06:46:24;6.22;;;3.28;;
28353;SDS011;15603;50.878;8.036;2023-05-10T06:48:51;7.78;;;3.28;;
28353;SDS011;15603;50.878;8.036;2023-05-10T06:51:18;5.35;;;3.45;;
28353;SDS011;15603;50.878;8.036;2023-05-10T06:53:47;7.72;;;3.67;;
28353;SDS011;15603;50.878;8.036;2023-05-10T06:56:14;9.20;;;3.65;;
28353;SDS011;15603;50.878;8.036;2023-05-10T06:58:41;8.20;;;3.20;;
28353;SDS011;15603;50.878;8.036;2023-05-10T07:01:08;6.28;;;2.75;;
28353;SDS011;15603;50.878;8.036;2023-05-10T07:03:36;4.25;;;2.78;;
28353;SDS011;15603;50.878;8.036;2023-05-10T07:06:03;8.10;;;2.80;;
28353;SDS011;15603;50.878;8.036;2023-05-10T07:08:31;3.25;;;2.40;;
28353;SDS011;15603;50.878;8.036;2023-05-10T07:11:05;4.13;;;2.25;;
28353;SDS011;15603;50.878;8.036;2023-05-10T07:13:36;4.55;;;2.30;;
28353;SDS011;15603;50.878;8.036;2023-05-10T07:16:05;4.82;;;2.83;;
28353;SDS011;15603;50.878;8.036;2023-05-10T07:18:33;5.38;;;3.00;;
28353;SDS011;15603;50.878;8.036;2023-05-10T07:21:00;12.75;;;3.90;;
28353;SDS011;15603;50.878;8.036;2023-05-10T07:23:28;7.65;;;3.25;;
28353;SDS011;15603;50.878;8.036;2023-05-10T07:25:56;4.95;;;2.85;;
28353;SDS011;15603;50.878;8.036;2023-05-10T07:28:24;7.93;;;2.90;;
28353;SDS011;15603;50.878;8.036;2023-05-10T07:30:51;7.55;;;3.60;;
28353;SDS011;15603;50.878;8.036;2023-05-10T07:33:18;7.95;;;3.15;;
28353;SDS011;15603;50.878;8.036;2023-05-10T07:35:45;6.47;;;3.33;;
28353;SDS011;15603;50.878;8.036;2023-05-10T07:38:12;5.88;;;3.60;;
28353;SDS011;15603;50.878;8.036;2023-05-10T07:40:39;11.75;;;3.53;;
28353;SDS011;15603;50.878;8.036;2023-05-10T07:43:06;6.55;;;3.70;;
28353;SDS011;15603;50.878;8.036;2023-05-10T07:45:33;6.55;;;4.05;;
28353;SDS011;15603;50.878;8.036;2023-05-10T07:48:01;7.65;;;3.85;;
28353;SDS011;15603;50.878;8.036;2023-05-10T07:50:28;7.20;;;4.18;;
28353;SDS011;15603;50.878;8.036;2023-05-10T07:52:55;11.52;;;5.00;;
28353;SDS011;15603;50.878;8.036;2023-05-10T07:55:22;10.85;;;4.15;;
28353;SDS011;15603;50.878;8.036;2023-05-10T07:57:49;7.13;;;4.50;;
28353;SDS011;15603;50.878;8.036;2023-05-10T08:00:17;8.40;;;4.60;;
28353;SDS011;15603;50.878;8.036;2023-05-10T08:02:46;10.63;;;4.50;;
28353;SDS011;15603;50.878;8.036;2023-05-10T08:05:14;13.82;;;6.70;;
28353;SDS011;15603;50.878;8.036;2023-05-10T08:07:41;13.77;;;7.70;;
28353;SDS011;15603;50.878;8.036;2023-05-10T08:10:09;14.75;;;8.50;;
28353;SDS011;15603;50.878;8.036;2023-05-10T08:12:38;22.67;;;9.25;;
28353;SDS011;15603;50.878;8.036;2023-05-10T08:15:05;15.93;;;9.65;;
28353;SDS011;15603;50.878;8.036;2023-05-10T08:17:33;19.63;;;10.25;;
28353;SDS011;15603;50.878;8.036;2023-05-10T08:20:01;22.73;;;11.32;;
28353;SDS011;15603;50.878;8.036;2023-05-10T08:22:28;22.20;;;12.88;;
28353;SDS011;15603;50.878;8.036;2023-05-10T08:24:55;20.35;;;12.75;;
28353;SDS011;15603;50.878;8.036;2023-05-10T08:27:22;21.45;;;14.32;;
28353;SDS011;15603;50.878;8.036;2023-05-10T08:29:49;26.17;;;14.43;;
28353;SDS011;15603;50.878;8.036;2023-05-10T08:32:16;27.35;;;15.10;;
28353;SDS011;15603;50.878;8.036;2023-05-10T08:34:44;27.25;;;16.00;;
28353;SDS011;15603;50.878;8.036;2023-05-10T08:37:11;33.10;;;16.80;;
28353;SDS011;15603;50.878;8.036;2023-05-10T08:39:40;31.42;;;15.98;;
28353;SDS011;15603;50.878;8.036;2023-05-10T08:42:07;33.35;;;17.33;;
28353;SDS011;15603;50.878;8.036;2023-05-10T08:44:36;28.33;;;15.30;;
28353;SDS011;15603;50.878;8.036;2023-05-10T08:47:06;29.42;;;16.52;;
28353;SDS011;15603;50.878;8.036;2023-05-10T08:49:34;28.13;;;15.25;;
28353;SDS011;15603;50.878;8.036;2023-05-10T08:52:02;30.73;;;15.55;;
28353;SDS011;15603;50.878;8.036;2023-05-10T08:54:31;24.92;;;13.07;;
28353;SDS011;15603;50.878;8.036;2023-05-10T08:56:59;23.17;;;13.07;;
28353;SDS011;15603;50.878;8.036;2023-05-10T08:59:27;22.23;;;12.00;;
28353;SDS011;15603;50.878;8.036;2023-05-10T09:01:55;20.27;;;13.35;;
28353;SDS011;15603;50.878;8.036;2023-05-10T09:04:25;23.08;;;14.18;;
28353;SDS011;15603;50.878;8.036;2023-05-10T09:06:53;26.88;;;13.93;;
28353;SDS011;15603;50.878;8.036;2023-05-10T09:09:21;21.45;;;13.70;;
28353;SDS011;15603;50.878;8.036;2023-05-10T09:11:48;26.65;;;14.35;;
28353;SDS011;15603;50.878;8.036;2023-05-10T09:14:15;27.60;;;14.85;;
28353;SDS011;15603;50.878;8.036;2023-05-10T09:16:44;22.50;;;14.10;;
28353;SDS011;15603;50.878;8.036;2023-05-10T09:19:11;24.27;;;14.75;;
28353;SDS011;15603;50.878;8.036;2023-05-10T09:21:38;24.58;;;15.00;;
28353;SDS011;15603;50.878;8.036;2023-05-10T09:24:06;21.30;;;13.65;;
28353;SDS011;15603;50.878;8.036;2023-05-10T09:26:34;23.05;;;13.52;;
28353;SDS011;15603;50.878;8.036;2023-05-10T09:29:02;22.67;;;12.50;;
28353;SDS011;15603;50.878;8.036;2023-05-10T09:31:49;23.63;;;13.82;;
28353;SDS011;15603;50.878;8.036;2023-05-10T09:34:30;27.98;;;12.70;;
28353;SDS011;15603;50.878;8.036;2023-05-10T09:36:59;21.85;;;12.07;;
28353;SDS011;15603;50.878;8.036;2023-05-10T09:39:31;21.33;;;12.18;;
28353;SDS011;15603;50.878;8.036;2023-05-10T09:42:03;15.05;;;9.57;;
28353;SDS011;15603;50.878;8.036;2023-05-10T09:44:33;21.63;;;10.90;;
28353;SDS011;15603;50.878;8.036;2023-05-10T09:47:00;32.55;;;12.13;;
28353;SDS011;15603;50.878;8.036;2023-05-10T09:49:29;20.05;;;11.25;;
28353;SDS011;15603;50.878;8.036;2023-05-10T09:51:59;19.65;;;11.43;;
28353;SDS011;15603;50.878;8.036;2023-05-10T09:54:28;21.08;;;12.02;;
28353;SDS011;15603;50.878;8.036;2023-05-10T09:56:55;21.38;;;11.60;;
28353;SDS011;15603;50.878;8.036;2023-05-10T09:59:24;16.52;;;9.40;;
28353;SDS011;15603;50.878;8.036;2023-05-10T10:01:57;13.55;;;9.45;;
28353;SDS011;15603;50.878;8.036;2023-05-10T10:07:03;13.93;;;8.15;;
28353;SDS011;15603;50.878;8.036;2023-05-10T10:09:31;13.60;;;8.32;;
28353;SDS011;15603;50.878;8.036;2023-05-10T10:12:03;14.27;;;9.20;;
28353;SDS011;15603;50.878;8.036;2023-05-10T10:14:31;17.02;;;9.52;;
28353;SDS011;15603;50.878;8.036;2023-05-10T10:16:59;14.68;;;8.40;;
28353;SDS011;15603;50.878;8.036;2023-05-10T10:19:30;17.92;;;7.47;;
28353;SDS011;15603;50.878;8.036;2023-05-10T10:21:59;11.40;;;6.75;;
28353;SDS011;15603;50.878;8.036;2023-05-10T10:24:27;13.98;;;6.43;;
28353;SDS011;15603;50.878;8.036;2023-05-10T10:26:55;22.65;;;6.80;;
28353;SDS011;15603;50.878;8.036;2023-05-10T10:29:38;11.30;;;5.85;;
28353;SDS011;15603;50.878;8.036;2023-05-10T10:32:25;9.82;;;5.15;;
28353;SDS011;15603;50.878;8.036;2023-05-10T10:35:02;10.18;;;5.97;;
28353;SDS011;15603;50.878;8.036;2023-05-10T10:37:43;27.20;;;9.32;;
28353;SDS011;15603;50.878;8.036;2023-05-10T10:48:48;8.95;;;4.80;;
28353;SDS011;15603;50.878;8.036;2023-05-10T10:51:18;13.15;;;4.30;;
28353;SDS011;15603;50.878;8.036;2023-05-10T10:53:45;9.45;;;4.60;;
28353;SDS011;15603;50.878;8.036;2023-05-10T10:56:14;14.23;;;3.20;;
28353;SDS011;15603;50.878;8.036;2023-05-10T10:58:42;5.05;;;3.03;;
28353;SDS011;15603;50.878;8.036;2023-05-10T11:01:18;3.83;;;2.47;;
28353;SDS011;15603;50.878;8.036;2023-05-10T11:08:59;4.53;;;2.20;;
28353;SDS011;15603;50.878;8.036;2023-05-10T11:11:48;7.38;;;2.60;;
28353;SDS011;15603;50.878;8.036;2023-05-10T11:14:19;8.63;;;3.15;;
28353;SDS011;15603;50.878;8.036;2023-05-10T11:16:48;6.28;;;2.90;;
28353;SDS011;15603;50.878;8.036;2023-05-10T11:19:15;7.57;;;2.22;;
28353;SDS011;15603;50.878;8.036;2023-05-10T11:21:50;10.57;;;4.18;;
28353;SDS011;15603;50.878;8.036;2023-05-10T11:24:37;5.30;;;3.08;;
28353;SDS011;15603;50.878;8.036;2023-05-10T11:27:05;6.03;;;2.80;;
28353;SDS011;15603;50.878;8.036;2023-05-10T11:29:32;4.88;;;2.15;;
28353;SDS011;15603;50.878;8.036;2023-05-10T11:31:59;2.70;;;2.00;;
28353;SDS011;15603;50.878;8.036;2023-05-10T11:34:27;5.40;;;1.75;;
28353;SDS011;15603;50.878;8.036;2023-05-10T11:37:01;7.07;;;1.75;;
28353;SDS011;15603;50.878;8.036;2023-05-10T11:39:28;2.65;;;1.73;;
28353;SDS011;15603;50.878;8.036;2023-05-10T11:41:57;4.90;;;1.67;;
28353;SDS011;15603;50.878;8.036;2023-05-10T11:44:31;5.30;;;1.70;;
28353;SDS011;15603;50.878;8.036;2023-05-10T11:47:01;11.82;;;1.90;;
28353;SDS011;15603;50.878;8.036;2023-05-10T11:49:29;5.97;;;1.95;;
28353;SDS011;15603;50.878;8.036;2023-05-10T11:52:06;7.22;;;2.25;;
28353;SDS011;15603;50.878;8.036;2023-05-10T11:54:34;5.70;;;2.65;;
28353;SDS011;15603;50.878;8.036;2023-05-10T11:57:04;6.15;;;2.75;;
28353;SDS011;15603;50.878;8.036;2023-05-10T11:59:31;6.78;;;1.92;;
28353;SDS011;15603;50.878;8.036;2023-05-10T12:01:58;8.05;;;1.80;;
28353;SDS011;15603;50.878;8.036;2023-05-10T12:04:26;11.75;;;2.42;;
28353;SDS011;15603;50.878;8.036;2023-05-10T12:06:56;3.00;;;1.73;;
28353;SDS011;15603;50.878;8.036;2023-05-10T12:09:23;6.30;;;1.58;;
28353;SDS011;15603;50.878;8.036;2023-05-10T12:11:55;7.82;;;1.60;;
28353;SDS011;15603;50.878;8.036;2023-05-10T12:14:23;13.90;;;1.55;;
28353;SDS011;15603;50.878;8.036;2023-05-10T12:16:51;7.88;;;2.13;;
28353;SDS011;15603;50.878;8.036;2023-05-10T12:19:18;6.10;;;1.70;;
28353;SDS011;15603;50.878;8.036;2023-05-10T12:21:47;2.40;;;1.30;;
28353;SDS011;15603;50.878;8.036;2023-05-10T12:24:15;4.30;;;1.52;;
28353;SDS011;15603;50.878;8.036;2023-05-10T12:26:45;6.18;;;1.80;;
28353;SDS011;15603;50.878;8.036;2023-05-10T12:31:49;2.75;;;1.70;;
28353;SDS011;15603;50.878;8.036;2023-05-10T12:34:46;4.28;;;1.60;;
28353;SDS011;15603;50.878;8.036;2023-05-10T12:37:13;7.93;;;1.83;;
28353;SDS011;15603;50.878;8.036;2023-05-10T12:39:41;4.88;;;2.33;;
28353;SDS011;15603;50.878;8.036;2023-05-10T12:42:09;4.47;;;2.50;;
28353;SDS011;15603;50.878;8.036;2023-05-10T12:44:37;3.55;;;1.67;;
28353;SDS011;15603;50.878;8.036;2023-05-10T12:47:05;6.13;;;1.70;;
28353;SDS011;15603;50.878;8.036;2023-05-10T12:49:32;11.95;;;1.90;;
28353;SDS011;15603;50.878;8.036;2023-05-10T12:52:00;5.10;;;1.80;;
28353;SDS011;15603;50.878;8.036;2023-05-10T12:54:27;2.05;;;1.83;;
28353;SDS011;15603;50.878;8.036;2023-05-10T12:56:54;2.80;;;1.95;;
28353;SDS011;15603;50.878;8.036;2023-05-10T12:59:22;4.40;;;2.08;;
28353;SDS011;15603;50.878;8.036;2023-05-10T13:01:49;3.50;;;2.22;;
28353;SDS011;15603;50.878;8.036;2023-05-10T13:04:16;2.25;;;1.67;;
28353;SDS011;15603;50.878;8.036;2023-05-10T13:06:43;2.80;;;2.20;;
28353;SDS011;15603;50.878;8.036;2023-05-10T13:09:11;3.25;;;2.28;;
28353;SDS011;15603;50.878;8.036;2023-05-10T13:11:38;3.00;;;2.10;;
28353;SDS011;15603;50.878;8.036;2023-05-10T13:14:05;2.45;;;1.80;;
28353;SDS011;15603;50.878;8.036;2023-05-10T13:16:32;1.90;;;1.65;;
28353;SDS011;15603;50.878;8.036;2023-05-10T13:18:59;2.65;;;2.08;;
28353;SDS011;15603;50.878;8.036;2023-05-10T13:21:27;4.25;;;1.98;;
28353;SDS011;15603;50.878;8.036;2023-05-10T13:23:54;3.08;;;2.00;;
28353;SDS011;15603;50.878;8.036;2023-05-10T13:26:22;3.50;;;2.22;;
28353;SDS011;15603;50.878;8.036;2023-05-10T13:28:49;6.97;;;2.40;;
28353;SDS011;15603;50.878;8.036;2023-05-10T13:31:18;2.88;;;2.42;;
28353;SDS011;15603;50.878;8.036;2023-05-10T13:33:45;3.58;;;2.97;;
28353;SDS011;15603;50.878;8.036;2023-05-10T13:36:12;3.25;;;2.92;;
28353;SDS011;15603;50.878;8.036;2023-05-10T13:38:39;4.53;;;3.20;;
28353;SDS011;15603;50.878;8.036;2023-05-10T13:41:06;4.60;;;2.78;;
28353;SDS011;15603;50.878;8.036;2023-05-10T13:43:33;8.27;;;2.67;;
28353;SDS011;15603;50.878;8.036;2023-05-10T13:46:01;3.85;;;2.67;;
28353;SDS011;15603;50.878;8.036;2023-05-10T13:48:28;4.53;;;3.05;;
28353;SDS011;15603;50.878;8.036;2023-05-10T13:50:55;3.80;;;2.60;;
28353;SDS011;15603;50.878;8.036;2023-05-10T13:53:22;6.38;;;2.70;;
28353;SDS011;15603;50.878;8.036;2023-05-10T13:55:49;5.93;;;3.50;;
28353;SDS011;15603;50.878;8.036;2023-05-10T13:58:17;6.82;;;2.80;;
28353;SDS011;15603;50.878;8.036;2023-05-10T14:00:44;9.57;;;3.85;;
28353;SDS011;15603;50.878;8.036;2023-05-10T14:03:11;6.75;;;3.22;;
28353;SDS011;15603;50.878;8.036;2023-05-10T14:05:38;6.15;;;3.40;;
28353;SDS011;15603;50.878;8.036;2023-05-10T14:08:05;4.97;;;2.72;;
28353;SDS011;15603;50.878;8.036;2023-05-10T14:10:32;9.45;;;3.72;;
28353;SDS011;15603;50.878;8.036;2023-05-10T14:12:59;6.53;;;4.28;;
28353;SDS011;15603;50.878;8.036;2023-05-10T14:15:26;10.02;;;3.85;;
28353;SDS011;15603;50.878;8.036;2023-05-10T14:17:53;8.93;;;5.47;;
28353;SDS011;15603;50.878;8.036;2023-05-10T14:20:21;9.60;;;5.10;;
28353;SDS011;15603;50.878;8.036;2023-05-10T14:22:48;7.90;;;4.68;;
28353;SDS011;15603;50.878;8.036;2023-05-10T14:25:15;7.72;;;4.85;;
28353;SDS011;15603;50.878;8.036;2023-05-10T14:27:42;12.88;;;5.07;;
28353;SDS011;15603;50.878;8.036;2023-05-10T14:30:09;6.93;;;4.43;;
28353;SDS011;15603;50.878;8.036;2023-05-10T14:32:37;8.88;;;5.75;;
28353;SDS011;15603;50.878;8.036;2023-05-10T14:35:04;12.30;;;5.45;;
28353;SDS011;15603;50.878;8.036;2023-05-10T14:37:32;9.32;;;5.55;;
28353;SDS011;15603;50.878;8.036;2023-05-10T14:40:00;11.85;;;6.57;;
28353;SDS011;15603;50.878;8.036;2023-05-10T14:42:27;9.38;;;5.88;;
28353;SDS011;15603;50.878;8.036;2023-05-10T14:44:55;10.93;;;5.75;;
28353;SDS011;15603;50.878;8.036;2023-05-10T14:47:22;15.70;;;7.57;;
28353;SDS011;15603;50.878;8.036;2023-05-10T14:49:49;9.70;;;6.70;;
28353;SDS011;15603;50.878;8.036;2023-05-10T14:52:16;11.68;;;5.90;;
28353;SDS011;15603;50.878;8.036;2023-05-10T14:54:43;11.60;;;5.88;;
28353;SDS011;15603;50.878;8.036;2023-05-10T14:57:11;12.75;;;6.30;;
28353;SDS011;15603;50.878;8.036;2023-05-10T14:59:38;8.15;;;5.50;;
28353;SDS011;15603;50.878;8.036;2023-05-10T15:02:05;15.23;;;5.35;;
28353;SDS011;15603;50.878;8.036;2023-05-10T15:04:35;7.30;;;4.55;;
28353;SDS011;15603;50.878;8.036;2023-05-10T15:07:03;9.80;;;4.95;;
28353;SDS011;15603;50.878;8.036;2023-05-10T15:09:30;8.38;;;4.50;;
28353;SDS011;15603;50.878;8.036;2023-05-10T15:11:57;8.20;;;4.63;;
28353;SDS011;15603;50.878;8.036;2023-05-10T15:14:24;9.88;;;5.93;;
28353;SDS011;15603;50.878;8.036;2023-05-10T15:16:52;7.25;;;4.78;;
28353;SDS011;15603;50.878;8.036;2023-05-10T15:19:19;15.43;;;4.85;;
28353;SDS011;15603;50.878;8.036;2023-05-10T15:21:46;8.45;;;4.60;;
28353;SDS011;15603;50.878;8.036;2023-05-10T15:24:14;10.95;;;4.75;;
28353;SDS011;15603;50.878;8.036;2023-05-10T15:26:41;9.88;;;3.92;;
28353;SDS011;15603;50.878;8.036;2023-05-10T15:29:08;7.05;;;4.25;;
28353;SDS011;15603;50.878;8.036;2023-05-10T15:31:35;7.50;;;4.88;;